< < Back
Terminal Aerodrome Forecast


Current Version              Previous Versions:   1  2  3  4  5  6  7  8  9  

Terminal Aerodrome Forecast

879
FTUS42 KGSP 162300
TAFAND
TAF
KAND 162333Z 1700/1724 30003KT P6SM VCTS BKN045CB
     FM170400 00000KT 5SM BR SCT020
     FM171300 03005KT P6SM BKN030
     FM171800 04003KT P6SM SCT040=

Latest METAR

084
SAUS70 KWBC 170700 RRF
MTRAND
METAR KAND 170656Z AUTO 02003KT 10SM FEW100 20/18 A2997 RMK AO2 SLP139
T02000183


USA.gov is the U.S. government's official web portal to all federal, state and local government web resources and services.